createdAt,value
2022-11-10T00:04:30.657Z,12.03
2022-11-10T00:09:52.706Z,11.89
2022-11-10T00:15:31.161Z,11.91
2022-11-10T00:20:51.498Z,12.15
2022-11-10T00:26:14.103Z,12.03
2022-11-10T00:31:34.138Z,12.18
2022-11-10T00:36:54.281Z,12.12
2022-11-10T00:42:14.673Z,12.19
2022-11-10T00:47:34.817Z,12.15
2022-11-10T00:52:55.105Z,12.02
2022-11-10T00:58:15.520Z,11.95
2022-11-10T01:03:35.897Z,11.76
2022-11-10T01:08:55.999Z,11.66
2022-11-10T01:14:16.376Z,11.64
2022-11-10T01:19:36.735Z,11.68
2022-11-10T01:24:56.984Z,11.73
2022-11-10T01:30:17.323Z,11.65
2022-11-10T01:35:38.170Z,11.58
2022-11-10T01:40:58.821Z,11.48
2022-11-10T01:46:18.912Z,11.40
2022-11-10T01:51:58.243Z,11.30
2022-11-10T01:57:18.502Z,11.27
2022-11-10T02:02:46.235Z,11.24
2022-11-10T02:08:07.216Z,11.21
2022-11-10T02:13:27.668Z,11.16
2022-11-10T02:18:49.007Z,11.20
2022-11-10T02:24:09.221Z,11.18
2022-11-10T02:29:29.514Z,11.10
2022-11-10T02:34:49.822Z,11.11
2022-11-10T02:40:10.376Z,11.02
2022-11-10T02:45:30.579Z,11.06
2022-11-10T02:50:51.009Z,11.07
2022-11-10T02:56:11.251Z,10.99
2022-11-10T03:01:31.536Z,11.00
2022-11-10T03:06:51.722Z,10.82
2022-11-10T03:12:11.935Z,10.70
2022-11-10T03:17:31.976Z,10.65
2022-11-10T03:22:52.266Z,10.70
2022-11-10T03:28:12.647Z,10.56
2022-11-10T03:33:32.987Z,10.74
2022-11-10T03:38:53.082Z,10.76
2022-11-10T03:44:13.400Z,10.62
2022-11-10T03:49:33.788Z,10.45
2022-11-10T03:54:56.995Z,10.38
2022-11-10T04:00:20.173Z,10.36
2022-11-10T04:05:58.752Z,10.37
2022-11-10T04:11:42.279Z,10.26
2022-11-10T04:17:03.692Z,10.26
2022-11-10T04:22:42.509Z,10.41
2022-11-10T04:28:02.768Z,10.34
2022-11-10T04:33:23.258Z,10.35
2022-11-10T04:38:43.872Z,10.38
2022-11-10T04:44:04.297Z,10.39
2022-11-10T04:49:24.655Z,10.30
2022-11-10T04:54:44.985Z,10.07
2022-11-10T05:00:07.538Z,9.96
2022-11-10T05:05:28.316Z,9.86
2022-11-10T05:10:48.123Z,9.90
2022-11-10T05:16:09.053Z,9.75
2022-11-10T05:21:29.525Z,9.83
2022-11-10T05:26:49.780Z,9.99
2022-11-10T05:32:09.796Z,10.18
2022-11-10T05:37:30.101Z,10.18
2022-11-10T05:42:54.718Z,10.13
2022-11-10T05:48:14.659Z,10.10
2022-11-10T05:53:34.818Z,10.10
2022-11-10T05:58:55.301Z,10.04
2022-11-10T06:04:15.383Z,10.03
2022-11-10T06:09:35.682Z,10.00
2022-11-10T06:14:59.008Z,10.04
2022-11-10T06:20:19.686Z,9.96
2022-11-10T06:25:41.688Z,9.85
2022-11-10T06:31:01.725Z,9.96
2022-11-10T06:36:22.949Z,9.89
2022-11-10T06:41:43.289Z,10.17
2022-11-10T06:47:03.456Z,10.24
2022-11-10T06:52:23.624Z,10.35
2022-11-10T06:57:43.943Z,10.31
2022-11-10T07:03:06.860Z,10.43
2022-11-10T07:08:27.042Z,10.47
2022-11-10T07:13:47.224Z,10.75
2022-11-10T07:19:07.574Z,10.88
2022-11-10T07:24:30.420Z,10.94
2022-11-10T07:29:50.533Z,11.22
2022-11-10T07:35:10.848Z,11.19
2022-11-10T07:40:31.336Z,11.30
2022-11-10T07:45:52.385Z,11.50
2022-11-10T07:51:12.655Z,11.70
2022-11-10T07:56:32.770Z,11.73
2022-11-10T08:01:52.975Z,11.80
2022-11-10T08:07:13.299Z,12.03
2022-11-10T08:12:33.891Z,12.32
2022-11-10T08:18:00.408Z,12.52
2022-11-10T08:23:20.955Z,12.61
2022-11-10T08:28:41.431Z,12.97
2022-11-10T08:34:01.670Z,12.92
2022-11-10T08:39:38.144Z,13.05
2022-11-10T08:44:59.135Z,12.98
2022-11-10T08:50:19.472Z,13.04
2022-11-10T08:55:40.836Z,12.92
2022-11-10T09:01:01.234Z,13.62
2022-11-10T09:06:21.552Z,14.04
2022-11-10T09:11:41.736Z,14.38
2022-11-10T09:17:02.068Z,15.77
2022-11-10T09:22:22.349Z,15.45
2022-11-10T09:27:42.603Z,13.96
2022-11-10T09:33:02.835Z,13.84
2022-11-10T09:38:23.396Z,14.36
2022-11-10T09:44:11.241Z,15.16
2022-11-10T09:49:49.573Z,15.69
2022-11-10T09:55:18.891Z,14.50
2022-11-10T10:00:42.621Z,15.75
2022-11-10T10:06:14.585Z,15.10
2022-11-10T10:11:43.521Z,15.20
2022-11-10T10:17:24.798Z,15.24
2022-11-10T10:22:58.954Z,14.93
2022-11-10T10:28:19.050Z,15.75
2022-11-10T10:33:39.764Z,16.51
2022-11-10T10:39:10.036Z,17.37
2022-11-10T10:44:30.320Z,15.50
2022-11-10T10:49:50.649Z,16.17
2022-11-10T10:55:12.569Z,16.85
2022-11-10T11:00:42.033Z,17.16
2022-11-10T11:06:08.293Z,17.36
2022-11-10T11:11:31.316Z,17.65
2022-11-10T11:16:55.776Z,17.68
2022-11-10T11:22:49.217Z,15.55
2022-11-10T11:28:31.299Z,14.27
2022-11-10T11:34:17.968Z,14.78
2022-11-10T11:39:53.455Z,14.82
2022-11-10T11:45:39.489Z,14.30
2022-11-10T11:51:11.238Z,14.41
2022-11-10T11:56:35.346Z,15.67
2022-11-10T12:02:32.445Z,16.27
2022-11-10T12:08:05.032Z,17.23
2022-11-10T12:13:50.133Z,17.06
2022-11-10T12:19:32.256Z,16.76
2022-11-10T12:25:01.479Z,16.06
2022-11-10T12:30:21.877Z,15.34
2022-11-10T12:35:44.348Z,16.40
2022-11-10T12:41:11.347Z,16.12
2022-11-10T12:46:32.613Z,16.68
2022-11-10T12:52:18.588Z,17.72
2022-11-10T12:57:39.139Z,16.42
2022-11-10T13:02:59.823Z,16.06
2022-11-10T13:08:41.544Z,16.52
2022-11-10T13:14:23.853Z,16.72
2022-11-10T13:19:49.868Z,16.23
2022-11-10T13:25:37.297Z,15.34
2022-11-10T13:30:59.083Z,15.14
2022-11-10T13:36:50.582Z,14.81
2022-11-10T13:42:11.822Z,15.34
2022-11-10T13:47:58.067Z,16.44
2022-11-10T13:53:18.352Z,16.00
2022-11-10T13:58:44.334Z,15.35
2022-11-10T14:04:06.964Z,15.83
2022-11-10T14:09:35.205Z,16.13
2022-11-10T14:15:02.619Z,15.71
2022-11-10T14:20:31.972Z,15.63
2022-11-10T14:26:19.256Z,14.81
2022-11-10T14:31:44.006Z,15.08
2022-11-10T14:37:04.767Z,14.56
2022-11-10T14:42:33.480Z,13.93
2022-11-10T14:47:56.052Z,13.92
2022-11-10T14:53:33.496Z,13.77
2022-11-10T14:58:55.743Z,13.51
2022-11-10T15:04:16.713Z,13.57
2022-11-10T15:09:37.568Z,13.42
2022-11-10T15:14:59.862Z,13.03
2022-11-10T15:20:34.817Z,12.94
2022-11-10T15:25:56.047Z,12.94
2022-11-10T15:31:30.932Z,12.98
2022-11-10T15:37:09.591Z,12.71
2022-11-10T15:42:30.160Z,12.58
2022-11-10T15:47:50.597Z,12.52
2022-11-10T15:53:15.761Z,12.50
2022-11-10T15:58:36.707Z,12.44
2022-11-10T16:03:57.455Z,12.39
2022-11-10T16:09:20.974Z,12.25
2022-11-10T16:14:46.891Z,12.10
2022-11-10T16:20:14.438Z,12.02
2022-11-10T16:25:38.856Z,11.89
2022-11-10T16:31:00.789Z,11.84
2022-11-10T16:36:27.029Z,11.73
2022-11-10T16:41:47.742Z,11.74
2022-11-10T16:47:18.665Z,11.68
2022-11-10T16:52:39.674Z,11.63
2022-11-10T16:57:59.772Z,11.59
2022-11-10T17:03:37.378Z,11.40
2022-11-10T17:09:07.729Z,11.43
2022-11-10T17:14:29.568Z,11.35
2022-11-10T17:19:52.238Z,11.21
2022-11-10T17:25:23.128Z,11.16
2022-11-10T17:30:47.462Z,11.06
2022-11-10T17:36:18.901Z,11.04
2022-11-10T17:41:38.821Z,10.95
2022-11-10T17:46:59.096Z,10.82
2022-11-10T17:52:20.796Z,10.85
2022-11-10T17:57:41.214Z,10.85
2022-11-10T18:03:02.940Z,10.75
2022-11-10T18:08:26.361Z,10.70
2022-11-10T18:13:50.519Z,10.70
2022-11-10T18:19:14.864Z,10.63
2022-11-10T18:24:34.839Z,10.64
2022-11-10T18:29:55.782Z,10.53
2022-11-10T18:35:17.848Z,10.43
2022-11-10T18:40:38.285Z,10.48
2022-11-10T18:45:58.358Z,10.59
2022-11-10T18:51:18.844Z,10.57
2022-11-10T18:56:39.015Z,10.57
2022-11-10T19:01:59.032Z,10.57
2022-11-10T19:07:19.637Z,10.67
2022-11-10T19:12:40.047Z,10.59
2022-11-10T19:18:00.134Z,10.65
2022-11-10T19:23:20.810Z,10.63
2022-11-10T19:28:42.481Z,10.55
2022-11-10T19:34:02.959Z,10.54
2022-11-10T19:39:25.193Z,10.51
2022-11-10T19:44:46.192Z,10.51
2022-11-10T19:50:07.007Z,10.39
2022-11-10T19:55:28.912Z,10.33
2022-11-10T20:00:50.749Z,10.38
2022-11-10T20:06:15.883Z,10.32
2022-11-10T20:11:36.090Z,10.17
2022-11-10T20:16:57.156Z,10.15
2022-11-10T20:22:17.531Z,10.00
2022-11-10T20:27:38.015Z,10.02
2022-11-10T20:32:59.161Z,10.01
2022-11-10T20:38:19.948Z,10.04
2022-11-10T20:43:40.757Z,9.96
2022-11-10T20:49:00.917Z,10.05
2022-11-10T20:54:23.322Z,10.11
2022-11-10T20:59:45.153Z,10.08
2022-11-10T21:05:06.021Z,10.24
2022-11-10T21:10:26.489Z,10.13
2022-11-10T21:15:53.496Z,10.29
2022-11-10T21:21:22.785Z,10.18
2022-11-10T21:26:43.152Z,10.13
2022-11-10T21:32:03.817Z,10.07
2022-11-10T21:37:25.991Z,10.17
2022-11-10T21:42:46.452Z,10.25
2022-11-10T21:48:07.980Z,10.14
2022-11-10T21:53:28.699Z,10.11
2022-11-10T21:58:48.988Z,10.25
2022-11-10T22:04:09.151Z,10.28
2022-11-10T22:09:47.856Z,10.12
2022-11-10T22:15:33.397Z,10.05
2022-11-10T22:20:53.664Z,10.09
2022-11-10T22:26:14.617Z,9.94
2022-11-10T22:31:35.150Z,9.97
2022-11-10T22:36:55.176Z,9.77
2022-11-10T22:42:34.081Z,9.66
2022-11-10T22:48:13.403Z,9.71
2022-11-10T22:53:37.512Z,9.83
2022-11-10T22:59:00.107Z,9.98
2022-11-10T23:04:21.938Z,10.00
2022-11-10T23:09:41.957Z,9.96
2022-11-10T23:15:02.279Z,9.83
2022-11-10T23:20:22.410Z,9.82
2022-11-10T23:25:43.417Z,9.62
2022-11-10T23:31:03.598Z,9.64
2022-11-10T23:36:25.471Z,9.62
2022-11-10T23:41:45.406Z,9.56
2022-11-10T23:47:05.834Z,9.47
2022-11-10T23:52:26.945Z,9.60
2022-11-10T23:57:47.049Z,9.56
